Time;durP1;ratioP1;P1;durP2;ratioP2;P2;SDS_P1;SDS_P2;PMS_P1;PMS_P2;Temp;Humidity;BMP_temperature;BMP_pressure;BME280_temperature;BME280_humidity;BME280_pressure;Samples;Min_cycle;Max_cycle;Signal;HPM_P1;HPM_P2
2021/01/13 00:00:21;;;;;;;24.80;19.43;;;1.10;99.90;;;1.98;100.00;97856.75;5241047;28;20200;-78
2021/01/13 00:02:53;;;;;;;26.77;19.10;;;1.10;99.90;;;1.94;100.00;97852.16;5233407;28;20220;-78
2021/01/13 00:05:27;;;;;;;23.17;17.10;;;1.10;99.90;;;1.91;100.00;97845.22;5231708;28;20224;-79
2021/01/13 00:07:59;;;;;;;25.70;17.57;;;1.10;99.90;;;1.88;100.00;97857.53;5235761;28;20675;-78
2021/01/13 00:10:32;;;;;;;23.67;17.67;;;1.10;99.90;;;1.85;100.00;97862.31;5244707;28;20198;-79
2021/01/13 00:13:04;;;;;;;20.57;16.10;;;1.10;99.90;;;1.87;100.00;97849.88;5252483;28;20573;-78
2021/01/13 00:15:36;;;;;;;20.53;16.60;;;1.10;99.90;;;1.92;100.00;97856.22;5252736;28;20198;-78
2021/01/13 00:18:08;;;;;;;21.53;15.93;;;1.10;99.90;;;1.89;100.00;97853.38;5244908;28;20588;-78
2021/01/13 00:20:40;;;;;;;19.50;15.40;;;1.10;99.90;;;1.84;100.00;97854.63;5246117;28;20195;-78
2021/01/13 00:23:12;;;;;;;19.00;15.47;;;1.10;99.90;;;1.82;100.00;97851.97;5238715;28;20227;-78
2021/01/13 00:25:45;;;;;;;20.73;16.53;;;1.10;99.90;;;1.84;100.00;97859.66;5234206;28;20678;-77
2021/01/13 00:28:17;;;;;;;18.43;14.47;;;1.10;99.90;;;1.85;100.00;97856.38;5247067;28;20297;-78
2021/01/13 00:30:49;;;;;;;19.37;16.27;;;1.10;99.90;;;1.89;100.00;97865.97;5249174;28;20244;-79
2021/01/13 00:33:21;;;;;;;18.43;14.70;;;1.10;99.90;;;1.89;100.00;97864.38;5231080;28;20578;-79
2021/01/13 00:35:53;;;;;;;20.07;15.93;;;1.10;99.90;;;1.89;100.00;97864.38;5231610;28;20201;-78
2021/01/13 00:38:26;;;;;;;22.03;16.40;;;1.10;99.90;;;1.91;100.00;97872.06;5229608;28;20256;-77
2021/01/13 00:40:59;;;;;;;18.03;16.00;;;1.10;99.90;;;1.92;100.00;97872.22;5230591;28;20207;-79
2021/01/13 00:43:31;;;;;;;19.43;15.60;;;1.10;99.90;;;1.94;100.00;97874.84;5239275;28;20223;-80
2021/01/13 00:46:03;;;;;;;19.93;15.63;;;1.20;99.90;;;2.05;100.00;97879.22;5254543;28;20231;-77
2021/01/13 00:48:36;;;;;;;17.37;15.10;;;1.20;99.90;;;2.02;100.00;97873.91;5252176;28;20209;-78
2021/01/13 00:51:08;;;;;;;19.80;14.13;;;1.20;99.90;;;2.02;100.00;97876.44;5249092;28;20297;-78
2021/01/13 00:53:40;;;;;;;17.97;14.60;;;1.20;99.90;;;2.02;100.00;97882.34;5239047;28;20221;-80
2021/01/13 00:56:13;;;;;;;19.83;16.13;;;1.20;99.90;;;2.02;100.00;97886.50;5232434;28;20295;-79
2021/01/13 00:58:45;;;;;;;17.43;14.03;;;1.20;99.90;;;2.03;100.00;97888.28;5231491;28;20214;-79
2021/01/13 01:01:17;;;;;;;18.47;15.40;;;1.20;99.90;;;2.07;100.00;97894.50;5247717;28;20204;-77
2021/01/13 01:03:49;;;;;;;22.27;15.40;;;1.30;99.90;;;2.07;100.00;97900.41;5252086;28;20287;-79
2021/01/13 01:06:21;;;;;;;20.33;15.00;;;1.30;99.90;;;2.06;100.00;97906.22;5234450;28;20585;-78
2021/01/13 01:08:54;;;;;;;17.67;14.83;;;1.20;99.90;;;2.07;100.00;97907.09;5232364;28;20193;-79
2021/01/13 01:11:34;;;;;;;15.57;13.97;;;1.30;99.90;;;2.08;100.00;97912.25;5230809;28;20201;-79
2021/01/13 01:14:10;;;;;;;16.93;13.40;;;1.30;99.90;;;2.10;100.00;97918.34;5234306;28;20279;-79
2021/01/13 01:16:43;;;;;;;18.60;15.70;;;1.30;99.90;;;2.06;100.00;97917.91;5252176;28;20294;-79
2021/01/13 01:19:17;;;;;;;17.77;14.97;;;1.30;99.90;;;2.07;100.00;97910.50;5246552;28;20239;-78
2021/01/13 01:21:50;;;;;;;19.40;14.10;;;1.20;99.90;;;2.07;100.00;97905.47;5231185;28;20201;-80
2021/01/13 01:24:22;;;;;;;19.80;15.13;;;1.20;99.90;;;2.06;100.00;97908.75;5232790;28;20229;-78
2021/01/13 01:26:55;;;;;;;20.10;15.67;;;1.20;99.90;;;2.06;100.00;97913.78;5231631;28;20677;-81
2021/01/13 01:29:27;;;;;;;18.30;15.20;;;1.30;99.90;;;2.07;100.00;97915.53;5238449;28;20215;-78
2021/01/13 01:31:59;;;;;;;20.83;16.03;;;1.30;99.90;;;2.08;100.00;97917.31;5239073;28;20197;-79
2021/01/13 01:34:32;;;;;;;18.80;14.93;;;1.20;99.90;;;2.09;100.00;97919.09;5251450;28;20189;-79
2021/01/13 01:37:04;;;;;;;16.97;15.07;;;1.30;99.90;;;2.08;100.00;97921.47;5242402;28;20280;-78
2021/01/13 01:39:36;;;;;;;18.03;15.43;;;1.30;99.90;;;2.09;100.00;97928.28;5240705;28;20227;-78
2021/01/13 01:42:16;;;;;;;21.37;15.23;;;1.30;99.90;;;2.10;100.00;97935.09;5231146;28;20437;-78
2021/01/13 01:44:48;;;;;;;20.70;15.93;;;1.20;99.90;;;2.10;100.00;97933.47;5229705;28;20227;-79
2021/01/13 01:47:53;;;;;;;20.77;15.80;;;1.20;99.90;;;2.10;100.00;97936.00;5230824;28;20205;-79
2021/01/13 01:50:29;;;;;;;20.40;15.93;;;1.30;99.90;;;2.10;100.00;97936.00;5231756;28;20210;-79
2021/01/13 01:53:12;;;;;;;21.30;15.73;;;1.30;99.90;;;2.10;100.00;97933.47;5230231;28;20217;-78
2021/01/13 01:56:00;;;;;;;20.77;15.80;;;1.30;99.90;;;2.10;100.00;97941.03;5230447;28;20193;-78
2021/01/13 01:58:33;;;;;;;19.37;16.07;;;1.30;99.90;;;2.10;100.00;97946.06;5233092;28;20203;-79
2021/01/13 02:01:06;;;;;;;20.83;15.43;;;1.20;99.90;;;2.13;100.00;97955.56;5249552;28;20204;-79
2021/01/13 02:03:47;;;;;;;16.43;13.37;;;1.30;99.90;;;2.13;100.00;97941.31;5238448;28;20229;-79
2021/01/13 02:06:25;;;;;;;18.57;15.17;;;1.30;99.90;;;2.12;100.00;97953.75;5230461;28;20216;-79
2021/01/13 02:08:57;;;;;;;16.70;13.70;;;1.30;99.90;;;2.11;100.00;97955.41;5250490;28;20220;-78
2021/01/13 02:11:38;;;;;;;16.20;14.47;;;1.30;99.90;;;2.10;100.00;97961.19;5245910;28;20200;-78
2021/01/13 02:14:13;;;;;;;15.53;13.67;;;1.20;99.90;;;2.10;100.00;97968.75;5230069;28;20236;-79
2021/01/13 02:16:50;;;;;;;17.10;14.03;;;1.30;99.90;;;2.08;100.00;97967.72;5249434;28;20195;-78
2021/01/13 02:20:04;;;;;;;16.10;13.17;;;1.20;99.90;;;2.06;100.00;97961.69;5238753;28;20583;-78
2021/01/13 02:22:53;;;;;;;18.60;15.17;;;1.20;99.90;;;2.00;100.00;97961.09;5229313;28;20602;-78
2021/01/13 02:26:31;;;;;;;16.27;13.03;;;1.20;99.90;;;1.92;100.00;97964.56;5249663;28;20216;-79
2021/01/13 02:29:25;;;;;;;16.57;12.67;;;1.10;99.90;;;1.86;100.00;97963.97;5242314;28;20283;-79
2021/01/13 02:32:07;;;;;;;17.33;14.70;;;1.00;99.90;;;1.81;100.00;97968.63;5230091;28;20675;-78
2021/01/13 02:34:49;;;;;;;17.70;13.70;;;1.00;99.90;;;1.71;100.00;97964.34;5242991;28;20291;-79
2021/01/13 02:37:45;;;;;;;14.47;12.63;;;0.90;99.90;;;1.70;100.00;97967.63;5250056;28;20214;-78
2021/01/13 02:40:21;;;;;;;18.87;14.27;;;0.90;99.90;;;1.63;100.00;97961.88;5232568;28;20200;-81
2021/01/13 02:43:04;;;;;;;15.47;13.50;;;0.80;99.90;;;1.55;100.00;97971.25;5230523;28;20651;-80
2021/01/13 02:45:39;;;;;;;16.07;12.83;;;0.70;99.90;;;1.52;100.00;97970.97;5229892;28;20254;-78
2021/01/13 02:48:19;;;;;;;14.83;12.70;;;0.70;99.90;;;1.47;100.00;97970.53;5242150;28;20197;-78
2021/01/13 02:50:55;;;;;;;16.57;13.07;;;0.70;99.90;;;1.42;100.00;97966.69;5248951;28;20203;-79
2021/01/13 02:53:53;;;;;;;17.87;14.33;;;0.60;99.90;;;1.40;100.00;97979.88;5251094;28;20591;-79
2021/01/13 02:56:51;;;;;;;15.43;12.90;;;0.60;99.90;;;1.33;100.00;97976.78;5248709;28;20200;-80
2021/01/13 02:59:27;;;;;;;16.80;13.07;;;0.50;99.90;;;1.21;100.00;97978.16;5250527;28;20204;-79
2021/01/13 03:02:08;;;;;;;15.20;12.20;;;0.40;99.90;;;1.18;100.00;97977.88;5232283;28;20211;-78
2021/01/13 03:04:41;;;;;;;16.20;13.43;;;0.40;99.90;;;1.19;100.00;97979.63;5229265;28;20753;-78
2021/01/13 03:07:15;;;;;;;17.07;14.53;;;0.40;99.90;;;1.17;100.00;97986.13;5230604;28;20399;-78
2021/01/13 03:09:49;;;;;;;18.63;15.23;;;0.40;99.90;;;1.16;100.00;97980.97;5230456;28;20204;-79
2021/01/13 03:12:26;;;;;;;15.30;13.70;;;0.30;99.90;;;1.18;100.00;97982.91;5232182;28;20264;-78
2021/01/13 03:14:58;;;;;;;14.33;12.70;;;0.40;99.90;;;1.19;100.00;97993.84;5239231;28;20191;-78
2021/01/13 03:18:04;;;;;;;18.27;13.43;;;0.40;99.90;;;1.23;100.00;97986.75;5254959;28;20192;-80
2021/01/13 03:20:43;;;;;;;14.90;13.10;;;0.40;99.90;;;1.24;100.00;97988.50;5252654;28;20203;-78
2021/01/13 03:23:28;;;;;;;18.10;14.13;;;0.40;99.90;;;1.28;100.00;97988.03;5246505;28;20262;-79
2021/01/13 03:26:02;;;;;;;17.07;14.60;;;0.40;99.90;;;1.26;100.00;97981.09;5233053;28;20223;-79
2021/01/13 03:28:37;;;;;;;20.77;16.37;;;0.50;99.90;;;1.28;100.00;97979.59;5242327;28;20225;-78
2021/01/13 03:31:14;;;;;;;18.10;15.30;;;0.50;99.90;;;1.28;100.00;97975.44;5238449;28;20210;-78
2021/01/13 03:34:18;;;;;;;23.07;17.23;;;0.50;99.90;;;1.30;100.00;97979.00;5243994;28;20284;-78
2021/01/13 03:37:01;;;;;;;19.70;15.30;;;0.50;99.90;;;1.35;100.00;97971.91;5254052;28;20199;-80
2021/01/13 03:39:37;;;;;;;22.57;16.70;;;0.60;99.90;;;1.27;100.00;97978.72;5252879;28;20286;-79
2021/01/13 03:42:15;;;;;;;19.67;14.73;;;0.50;99.90;;;1.30;100.00;97983.16;5236693;28;20204;-78
2021/01/13 03:44:48;;;;;;;22.03;16.07;;;0.50;99.90;;;1.31;100.00;97980.78;5232734;28;20222;-79
2021/01/13 03:48:04;;;;;;;21.50;14.93;;;0.50;99.90;;;1.32;100.00;97980.06;5232699;28;20209;-78
2021/01/13 03:50:43;;;;;;;21.57;16.67;;;0.50;99.90;;;1.31;100.00;97977.38;5242281;28;20268;-78
2021/01/13 03:53:16;;;;;;;20.70;15.17;;;0.60;99.90;;;1.29;100.00;97982.28;5253487;28;20227;-79
2021/01/13 03:55:50;;;;;;;18.57;15.47;;;0.50;99.90;;;1.28;100.00;97972.94;5253371;28;20557;-78
2021/01/13 03:58:48;;;;;;;20.80;15.33;;;0.50;99.90;;;1.27;100.00;97982.88;5252823;28;20211;-78
2021/01/13 04:01:52;;;;;;;19.43;15.50;;;0.50;99.90;;;1.26;100.00;97992.06;5252767;28;20613;-78
2021/01/13 04:04:42;;;;;;;24.20;16.27;;;0.50;99.90;;;1.23;100.00;97986.75;5253227;28;20232;-78
2021/01/13 04:07:16;;;;;;;21.70;16.87;;;0.50;99.90;;;1.22;100.00;97992.50;5253232;28;20207;-78
2021/01/13 04:09:49;;;;;;;22.73;16.03;;;0.50;99.90;;;1.21;100.00;97993.25;5252232;28;20272;-79
2021/01/13 04:12:33;;;;;;;18.90;15.83;;;0.50;99.90;;;1.24;100.00;97988.50;5232334;28;20223;-78
2021/01/13 04:15:07;;;;;;;23.87;16.87;;;0.40;99.90;;;1.21;100.00;97994.88;5233530;28;20195;-79
2021/01/13 04:17:40;;;;;;;23.73;16.80;;;0.40;99.90;;;1.08;100.00;98002.88;5250332;28;20641;-79
2021/01/13 04:20:14;;;;;;;19.67;15.57;;;0.30;99.90;;;1.06;100.00;98002.75;5250150;28;20193;-78
2021/01/13 04:22:49;;;;;;;20.57;16.17;;;0.30;99.90;;;1.06;100.00;97999.31;5230869;28;20315;-78
2021/01/13 04:25:22;;;;;;;23.20;17.60;;;0.30;99.90;;;1.07;100.00;97998.59;5235089;28;20218;-78
2021/01/13 04:27:55;;;;;;;20.60;16.70;;;0.30;99.90;;;1.03;100.00;98006.59;5252205;28;20204;-78
2021/01/13 04:30:29;;;;;;;20.00;15.63;;;0.20;99.90;;;1.07;100.00;98008.69;5249137;28;20196;-79
2021/01/13 04:33:02;;;;;;;18.53;15.40;;;0.30;99.90;;;1.08;100.00;98000.38;5231224;28;20230;-78
2021/01/13 04:35:34;;;;;;;19.50;16.47;;;0.30;99.90;;;1.12;100.00;98010.88;5233140;28;20252;-78
2021/01/13 04:38:10;;;;;;;20.87;16.20;;;0.30;99.90;;;1.12;100.00;98002.47;5231801;28;20243;-79
2021/01/13 04:40:51;;;;;;;21.87;16.33;;;0.30;99.90;;;1.12;100.00;98002.47;5237291;28;20222;-79
2021/01/13 04:43:49;;;;;;;20.33;16.67;;;0.30;99.90;;;1.15;100.00;98005.25;5251722;28;20581;-79
2021/01/13 04:46:33;;;;;;;21.77;16.00;;;0.30;99.90;;;1.17;100.00;98011.31;5241552;28;20982;-78
2021/01/13 04:49:09;;;;;;;23.50;17.30;;;0.30;99.90;;;1.11;100.00;98018.28;5250413;28;20208;-80
2021/01/13 04:51:43;;;;;;;20.23;16.87;;;0.30;99.90;;;1.06;100.00;98012.81;5250579;28;20237;-81
2021/01/13 04:54:18;;;;;;;20.50;17.27;;;0.30;99.90;;;1.08;100.00;98012.97;5251437;28;20692;-79
2021/01/13 04:57:42;;;;;;;24.43;17.07;;;0.30;99.90;;;1.08;100.00;98018.88;5238606;28;20203;-79
2021/01/13 05:00:57;;;;;;;23.50;17.07;;;0.30;99.90;;;1.06;100.00;98019.47;5230820;28;20203;-80
2021/01/13 05:03:50;;;;;;;23.63;17.30;;;0.20;99.90;;;1.02;100.00;98024.94;5231079;28;20227;-79
2021/01/13 05:06:47;;;;;;;25.40;17.97;;;0.20;99.90;;;0.93;100.00;98026.59;5231448;28;20673;-80
2021/01/13 05:09:20;;;;;;;22.83;17.53;;;0.10;99.90;;;0.88;100.00;98034.56;5222357;28;20202;-79
2021/01/13 05:11:55;;;;;;;30.07;19.57;;;0.10;99.90;;;0.86;100.00;98033.56;5231595;28;20544;-79
2021/01/13 05:14:43;;;;;;;23.60;17.73;;;0.10;99.90;;;0.88;100.00;98034.56;5231754;28;20292;-79
2021/01/13 05:17:33;;;;;;;22.90;16.50;;;0.10;99.90;;;0.89;100.00;98030.44;5249233;28;20285;-82
2021/01/13 05:20:23;;;;;;;21.37;17.00;;;0.10;99.90;;;0.86;100.00;98028.53;5251385;28;20200;-81
2021/01/13 05:22:57;;;;;;;27.03;18.20;;;0.10;99.90;;;0.84;100.00;98035.03;5250335;28;20227;-79
2021/01/13 05:25:48;;;;;;;23.93;16.83;;;0.10;99.90;;;0.81;100.00;98033.84;5247994;28;20352;-79
2021/01/13 05:28:22;;;;;;;24.33;17.37;;;0.00;99.90;;;0.74;100.00;98042.41;5248607;28;20188;-80
2021/01/13 05:30:56;;;;;;;21.73;16.67;;;0.00;99.90;;;0.68;100.00;98039.28;5230926;28;20217;-80
2021/01/13 05:33:31;;;;;;;23.13;16.77;;;-0.10;99.90;;;0.64;100.00;98039.75;5234340;28;20213;-79
2021/01/13 05:36:06;;;;;;;24.47;16.57;;;-0.10;99.90;;;0.63;100.00;98043.91;5251073;28;20208;-79
2021/01/13 05:39:05;;;;;;;27.17;17.97;;;-0.10;99.90;;;0.56;100.00;98038.09;5251515;28;20313;-78
2021/01/13 05:41:40;;;;;;;23.67;16.50;;;-0.20;99.90;;;0.52;100.00;98049.50;5237102;28;20239;-80
2021/01/13 05:44:13;;;;;;;21.67;16.07;;;-0.20;99.90;;;0.48;100.00;98038.97;5230709;28;20230;-79
2021/01/13 05:46:47;;;;;;;19.03;14.97;;;-0.20;99.90;;;0.50;100.00;98045.06;5238713;28;20217;-79
2021/01/13 05:49:20;;;;;;;18.73;15.73;;;-0.30;99.90;;;0.52;100.00;98038.56;5232417;28;20193;-79
2021/01/13 05:51:53;;;;;;;18.63;14.70;;;-0.20;99.90;;;0.53;100.00;98032.78;5230965;28;20227;-79
2021/01/13 05:54:32;;;;;;;23.97;16.73;;;-0.20;99.90;;;0.60;100.00;98040.16;5233747;28;20276;-79
2021/01/13 05:57:06;;;;;;;21.37;16.00;;;-0.20;99.90;;;0.59;100.00;98035.88;5251296;28;20188;-79
2021/01/13 05:59:39;;;;;;;17.67;15.07;;;-0.20;99.90;;;0.57;100.00;98039.88;5249987;28;20202;-80
2021/01/13 06:02:15;;;;;;;31.93;21.80;;;-0.20;99.90;;;0.56;100.00;98030.56;5232154;28;20197;-79
2021/01/13 06:04:49;;;;;;;26.60;18.37;;;-0.20;99.90;;;0.58;100.00;98044.19;5235467;28;20200;-79
2021/01/13 06:07:23;;;;;;;27.97;18.50;;;-0.20;99.90;;;0.58;100.00;98046.69;5251330;28;20207;-80
2021/01/13 06:09:57;;;;;;;28.90;20.20;;;-0.20;99.90;;;0.58;100.00;98044.19;5243652;28;20203;-79
2021/01/13 06:12:33;;;;;;;30.77;19.33;;;-0.20;99.90;;;0.59;100.00;98040.91;5248774;28;20216;-78
2021/01/13 06:15:09;;;;;;;30.17;18.57;;;-0.20;99.90;;;0.57;100.00;98040.78;5243550;28;20191;-79
2021/01/13 06:17:50;;;;;;;23.73;17.30;;;-0.20;99.90;;;0.54;100.00;98047.13;5245590;28;20180;-80
2021/01/13 06:20:24;;;;;;;19.47;15.93;;;-0.30;99.90;;;0.50;100.00;98050.09;5238824;28;20204;-79
2021/01/13 06:22:58;;;;;;;21.40;16.27;;;-0.30;99.90;;;0.42;100.00;98042.66;5234174;28;20221;-79
2021/01/13 06:25:32;;;;;;;21.43;16.40;;;-0.30;99.90;;;0.36;100.00;98047.09;5241266;28;20224;-79
2021/01/13 06:28:28;;;;;;;22.40;16.47;;;-0.40;99.90;;;0.32;100.00;98052.56;5249923;28;20680;-81
2021/01/13 06:31:06;;;;;;;19.63;15.63;;;-0.40;99.90;;;0.30;100.00;98049.00;5241244;28;20748;-80
2021/01/13 06:34:23;;;;;;;22.10;16.63;;;-0.40;99.90;;;0.26;100.00;98048.53;5244216;28;20212;-82
2021/01/13 06:37:23;;;;;;;22.47;15.37;;;-0.50;99.90;;;0.23;100.00;98044.13;5235476;28;20681;-79
2021/01/13 06:39:57;;;;;;;22.77;16.27;;;-0.50;99.90;;;0.21;100.00;98038.03;5239368;28;20470;-81
2021/01/13 06:42:30;;;;;;;24.30;16.40;;;-0.50;99.90;;;0.28;100.00;98047.94;5235312;28;20213;-82
2021/01/13 06:45:05;;;;;;;21.07;16.30;;;-0.50;99.90;;;0.30;100.00;98051.50;5236328;28;20225;-81
2021/01/13 06:47:54;;;;;;;17.50;14.90;;;-0.50;99.90;;;0.26;100.00;98039.38;5243102;28;20218;-81
2021/01/13 06:50:37;;;;;;;18.70;15.00;;;-0.50;99.90;;;0.19;100.00;98052.06;5233432;28;20196;-82
2021/01/13 06:53:12;;;;;;;22.60;15.50;;;-0.50;99.90;;;0.13;100.00;98049.84;5242417;28;20218;-81
2021/01/13 06:55:44;;;;;;;25.13;18.27;;;-0.50;99.90;;;0.16;100.00;98051.78;5253911;28;20196;-80
2021/01/13 06:58:19;;;;;;;26.00;18.50;;;-0.60;99.90;;;0.08;100.00;98055.13;5256292;28;20290;-82
2021/01/13 07:01:01;;;;;;;24.43;18.20;;;-0.60;99.90;;;0.10;100.00;98061.22;5240145;28;20203;-82
2021/01/13 07:03:33;;;;;;;21.83;17.00;;;-0.60;99.90;;;0.12;100.00;98069.81;5233563;28;20267;-80
2021/01/13 07:06:11;;;;;;;22.33;16.20;;;-0.60;99.90;;;0.16;100.00;98072.75;5248515;28;20227;-80
2021/01/13 07:08:43;;;;;;;24.97;19.47;;;-0.50;99.90;;;0.21;100.00;98070.72;5253372;28;20287;-82
2021/01/13 07:11:15;;;;;;;32.13;23.30;;;-0.50;99.90;;;0.20;100.00;98076.44;5247120;28;20193;-81
2021/01/13 07:14:01;;;;;;;31.20;23.83;;;-0.50;99.90;;;0.25;100.00;98074.41;5233122;28;20282;-82
2021/01/13 07:16:36;;;;;;;27.37;21.37;;;-0.50;99.90;;;0.28;100.00;98077.22;5231348;28;20203;-81
2021/01/13 07:19:09;;;;;;;40.60;27.70;;;-0.40;99.90;;;0.32;100.00;98075.19;5231768;28;20723;-81
2021/01/13 07:21:42;;;;;;;38.37;29.07;;;-0.40;99.90;;;0.37;100.00;98078.13;5240643;28;20204;-80
2021/01/13 07:24:15;;;;;;;33.43;24.73;;;-0.40;99.90;;;0.35;100.00;98075.50;5248229;28;20216;-81
2021/01/13 07:26:47;;;;;;;33.10;24.97;;;-0.40;99.90;;;0.39;100.00;98074.16;5244945;28;20217;-82
2021/01/13 07:29:21;;;;;;;35.33;26.03;;;-0.40;99.90;;;0.44;100.00;98076.38;5238719;28;20601;-81
2021/01/13 07:31:58;;;;;;;37.90;27.20;;;-0.30;99.90;;;0.51;100.00;98077.88;5232264;28;20192;-82
2021/01/13 07:34:34;;;;;;;31.57;23.57;;;-0.30;99.90;;;0.47;100.00;98088.38;5249690;28;20220;-81
2021/01/13 07:37:10;;;;;;;28.83;21.70;;;-0.30;99.90;;;0.56;100.00;98093.44;5252118;28;20197;-80
2021/01/13 07:40:26;;;;;;;36.13;23.60;;;-0.20;99.90;;;0.58;100.00;98099.50;5238909;28;20196;-80
2021/01/13 07:43:05;;;;;;;29.87;21.93;;;-0.20;99.90;;;0.58;100.00;98100.38;5249627;28;20223;-83
2021/01/13 07:45:42;;;;;;;30.53;21.33;;;-0.20;99.90;;;0.61;100.00;98099.81;5241867;28;20304;-82
2021/01/13 07:49:10;;;;;;;32.67;21.70;;;-0.20;99.90;;;0.57;100.00;98103.66;5231986;28;20197;-80
2021/01/13 07:51:50;;;;;;;25.53;19.57;;;-0.20;99.90;;;0.71;100.00;98107.50;5239877;28;20199;-81
2021/01/13 07:54:31;;;;;;;29.07;21.20;;;0.00;99.90;;;0.79;100.00;98111.66;5233013;28;20217;-80
2021/01/13 07:57:06;;;;;;;29.87;22.20;;;0.00;99.90;;;0.88;100.00;98112.56;5232852;28;20237;-80
2021/01/13 07:59:44;;;;;;;24.37;20.77;;;0.10;99.90;;;0.90;100.00;98108.56;5245548;28;20207;-81
2021/01/13 08:03:26;;;;;;;30.47;22.70;;;0.10;99.90;;;0.96;100.00;98109.91;5235068;28;20219;-81
2021/01/13 08:06:30;;;;;;;31.63;21.97;;;0.10;99.90;;;0.92;100.00;98107.81;5196327;28;20227;-81
2021/01/13 08:09:14;;;;;;;25.87;20.70;;;0.10;99.90;;;0.95;100.00;98114.06;5150378;28;20192;-81
2021/01/13 08:12:47;;;;;;;23.90;19.07;;;0.20;99.90;;;1.06;100.00;98115.09;5224528;28;20201;-80
2021/01/13 08:16:07;;;;;;;25.23;21.00;;;0.30;99.90;;;1.19;100.00;98108.00;5248752;28;20193;-81
2021/01/13 08:19:40;;;;;;;30.70;22.43;;;0.40;99.90;;;1.24;100.00;98116.91;5236118;28;20736;-81
2021/01/13 08:22:19;;;;;;;28.87;21.33;;;0.40;99.90;;;1.26;100.00;98119.53;5214976;28;20198;-82
2021/01/13 08:24:59;;;;;;;24.20;19.87;;;0.50;99.90;;;1.29;100.00;98118.22;5240015;28;20538;-81
2021/01/13 08:27:31;;;;;;;28.07;22.47;;;0.50;99.90;;;1.30;100.00;98120.00;5238543;28;20205;-81
2021/01/13 08:30:06;;;;;;;22.80;19.07;;;0.50;99.90;;;1.33;100.00;98116.88;5232401;28;20205;-82
2021/01/13 08:32:43;;;;;;;23.93;19.83;;;0.50;99.90;;;1.35;100.00;98116.31;5237757;28;20209;-81
2021/01/13 08:35:26;;;;;;;24.60;21.40;;;0.50;99.90;;;1.35;100.00;98113.78;5239049;28;20290;-81
2021/01/13 08:38:08;;;;;;;26.67;20.47;;;0.50;99.90;;;1.46;100.00;98121.47;5233589;28;20546;-82
2021/01/13 08:40:41;;;;;;;28.07;19.07;;;0.70;99.90;;;1.61;100.00;98128.00;5238199;28;20195;-80
2021/01/13 08:43:15;;;;;;;26.87;20.47;;;0.80;99.90;;;1.74;100.00;98128.38;5249858;28;20230;-81
2021/01/13 08:45:50;;;;;;;28.57;20.40;;;0.90;99.90;;;1.90;100.00;98130.75;5233053;28;20220;-81
2021/01/13 08:48:23;;;;;;;29.77;21.50;;;1.10;99.90;;;1.90;100.00;98132.38;5230218;28;20195;-81
2021/01/13 08:51:12;;;;;;;26.07;21.37;;;1.00;99.90;;;2.13;100.00;98132.91;5228619;28;20208;-81
2021/01/13 08:53:46;;;;;;;27.27;21.93;;;1.20;99.90;;;2.36;100.00;98126.59;5227509;28;20271;-83
2021/01/13 08:56:19;;;;;;;31.73;25.60;;;1.50;99.90;;;2.60;100.00;98128.84;5236912;28;20281;-82
2021/01/13 08:58:55;;;;;;;34.50;25.00;;;1.70;99.90;;;2.93;100.00;98120.06;5228926;28;20289;-83
2021/01/13 09:01:37;;;;;;;33.53;24.83;;;1.80;99.90;;;3.05;100.00;98121.16;5234981;28;20438;-82
2021/01/13 09:04:20;;;;;;;40.17;25.07;;;1.80;99.90;;;3.13;100.00;98125.25;5253815;28;20227;-83
2021/01/13 09:07:13;;;;;;;34.70;24.83;;;2.00;99.90;;;3.26;100.00;98126.34;5231345;28;20248;-83
2021/01/13 09:10:03;;;;;;;32.93;24.13;;;2.20;99.90;;;3.37;100.00;98130.72;5239261;28;20240;-83
2021/01/13 09:12:39;;;;;;;30.67;24.10;;;2.30;99.90;;;3.38;100.00;98127.44;5233118;28;20208;-83
2021/01/13 09:15:27;;;;;;;28.47;21.57;;;2.40;99.90;;;3.43;100.00;98128.72;5231005;28;20720;-81
2021/01/13 09:18:00;;;;;;;26.70;21.00;;;2.50;99.90;;;3.64;100.00;98127.22;5236691;28;20424;-82
2021/01/13 09:20:33;;;;;;;24.63;19.80;;;2.50;99.90;;;3.59;100.00;98129.34;5250245;28;20216;-83
2021/01/13 09:23:05;;;;;;;23.20;18.70;;;2.30;99.90;;;3.50;100.00;98136.09;5248006;28;20593;-83
2021/01/13 09:25:46;;;;;;;22.47;17.20;;;2.20;99.90;;;3.45;99.89;98127.22;5240774;28;20257;-83
2021/01/13 09:28:19;;;;;;;17.63;15.33;;;2.10;99.90;;;3.27;98.92;98128.13;5251622;28;20671;-81
2021/01/13 09:30:51;;;;;;;19.77;15.60;;;1.90;99.90;;;3.32;99.06;98137.91;5262983;28;20283;-82
2021/01/13 09:33:38;;;;;;;18.13;14.70;;;1.90;99.90;;;3.20;99.88;98143.47;5245267;28;20759;-81
2021/01/13 09:36:11;;;;;;;18.13;14.03;;;1.90;99.90;;;3.14;100.00;98144.69;5229380;28;20580;-81
2021/01/13 09:38:45;;;;;;;19.57;14.23;;;1.90;99.90;;;3.20;100.00;98135.91;5240185;28;20196;-81
2021/01/13 09:41:25;;;;;;;19.40;14.60;;;2.00;99.90;;;3.24;99.91;98145.53;5249015;28;20621;-81
2021/01/13 09:44:11;;;;;;;18.93;14.57;;;2.00;99.90;;;3.17;100.00;98146.59;5230796;28;20261;-80
2021/01/13 09:46:43;;;;;;;16.40;13.83;;;2.00;99.90;;;3.21;99.59;98147.78;5231202;28;20308;-81
2021/01/13 09:49:15;;;;;;;16.13;13.77;;;1.90;99.90;;;3.23;99.74;98147.16;5228575;28;20203;-80
2021/01/13 09:51:48;;;;;;;15.70;13.50;;;2.00;99.90;;;3.23;100.00;98149.69;5242256;28;20288;-82
2021/01/13 09:54:24;;;;;;;18.50;13.83;;;2.00;99.90;;;3.22;99.92;98154.59;5247733;28;20601;-81
2021/01/13 09:56:58;;;;;;;18.77;14.17;;;1.90;99.90;;;3.26;99.98;98142.41;5231124;28;20199;-81
2021/01/13 09:59:31;;;;;;;16.77;13.87;;;1.90;99.90;;;3.23;99.81;98142.09;5236411;28;20217;-82
2021/01/13 10:02:03;;;;;;;20.07;13.70;;;2.10;99.90;;;3.30;99.85;98141.91;5247286;28;20202;-82
2021/01/13 10:04:36;;;;;;;17.03;13.53;;;2.10;99.90;;;3.34;99.41;98145.59;5242976;28;20537;-82
2021/01/13 10:07:12;;;;;;;14.80;12.67;;;2.10;99.90;;;3.45;99.63;98144.91;5244476;28;20220;-81
2021/01/13 10:09:45;;;;;;;15.10;11.80;;;2.20;99.90;;;3.47;99.60;98138.38;5246493;28;20664;-81
2021/01/13 10:12:19;;;;;;;14.43;10.47;;;2.20;99.90;;;3.47;97.65;98138.38;5235391;28;20219;-81
2021/01/13 10:15:05;;;;;;;11.33;9.23;;;2.20;99.90;;;3.52;97.14;98138.75;5246068;28;20262;-81
2021/01/13 10:17:40;;;;;;;12.67;9.27;;;2.10;99.90;;;3.46;97.09;98131.53;5234008;28;20203;-81
2021/01/13 10:20:15;;;;;;;13.57;8.77;;;2.00;99.90;;;3.42;96.49;98136.19;5226094;28;20212;-82
2021/01/13 10:22:48;;;;;;;11.00;8.07;;;2.00;99.90;;;3.47;96.41;98138.38;5242286;28;20390;-81
2021/01/13 10:25:26;;;;;;;11.93;9.23;;;2.10;99.90;;;3.51;95.70;98130.28;5255439;28;20273;-83
2021/01/13 10:28:01;;;;;;;8.33;7.50;;;2.10;99.90;;;3.53;93.97;98126.28;5256017;28;20205;-82
2021/01/13 10:30:33;;;;;;;11.20;7.73;;;2.20;99.90;;;3.55;94.14;98131.47;5271276;28;20204;-81
2021/01/13 10:33:07;;;;;;;9.80;8.40;;;2.10;99.90;;;3.65;94.55;98128.09;5233403;28;20224;-82
2021/01/13 10:35:40;;;;;;;63.57;34.00;;;2.20;99.90;;;3.57;94.68;98124.91;5229320;28;20208;-81
2021/01/13 10:38:21;;;;;;;24.10;15.27;;;2.20;99.90;;;3.61;94.26;98121.91;5235374;28;20207;-81
2021/01/13 10:40:54;;;;;;;11.63;10.33;;;2.10;99.90;;;3.69;93.07;98122.56;5239475;28;20299;-83
2021/01/13 10:43:28;;;;;;;12.53;7.97;;;2.10;99.90;;;3.67;91.86;98113.97;5230398;28;20708;-82
2021/01/13 10:46:02;;;;;;;8.03;7.27;;;2.10;99.90;;;3.65;92.32;98113.81;5229873;28;20246;-82
2021/01/13 10:48:38;;;;;;;9.37;7.77;;;2.10;99.90;;;3.61;91.55;98117.72;5229820;28;20310;-82
2021/01/13 10:51:16;;;;;;;10.37;8.10;;;2.10;99.90;;;3.59;92.64;98114.16;5230917;28;20218;-84
2021/01/13 10:53:58;;;;;;;9.10;7.03;;;2.10;99.90;;;3.75;92.19;98113.88;5229370;28;20253;-81
2021/01/13 10:56:33;;;;;;;8.67;7.80;;;2.10;99.90;;;3.65;89.30;98107.88;5235514;28;20203;-82
2021/01/13 10:59:15;;;;;;;8.57;6.97;;;2.10;99.90;;;3.54;91.03;98110.34;5229892;28;20667;-82
2021/01/13 11:01:50;;;;;;;9.17;7.77;;;2.10;99.90;;;3.51;91.15;98110.06;5229481;28;20207;-82
2021/01/13 11:04:30;;;;;;;7.80;7.00;;;2.20;99.90;;;3.59;92.59;98111.66;5229044;28;20224;-82